createdAt,value
2022-08-14T00:01:50.273Z,2.83
2022-08-14T00:06:59.892Z,2.45
2022-08-14T00:12:05.512Z,2.55
2022-08-14T00:17:29.625Z,3.00
2022-08-14T00:22:56.303Z,2.40
2022-08-14T00:28:00.466Z,3.35
2022-08-14T00:33:16.072Z,2.40
2022-08-14T00:38:22.435Z,2.88
2022-08-14T00:43:32.176Z,2.00
2022-08-14T00:48:40.993Z,2.47
2022-08-14T00:53:47.606Z,2.13
2022-08-14T00:58:54.971Z,2.45
2022-08-14T01:04:05.731Z,2.23
2022-08-14T01:09:11.757Z,2.70
2022-08-14T01:14:28.237Z,2.55
2022-08-14T01:19:53.849Z,3.75
2022-08-14T01:24:59.567Z,3.42
2022-08-14T01:30:06.867Z,2.93
2022-08-14T01:35:17.493Z,3.80
2022-08-14T01:40:33.225Z,3.15
2022-08-14T01:45:41.820Z,3.23
2022-08-14T01:50:46.626Z,3.47
2022-08-14T01:55:57.573Z,3.72
2022-08-14T02:01:02.940Z,2.83
2022-08-14T02:06:33.343Z,3.20
2022-08-14T02:11:35.198Z,3.28
2022-08-14T02:16:42.802Z,3.20
2022-08-14T02:21:51.119Z,3.15
2022-08-14T02:28:23.645Z,3.03
2022-08-14T02:32:36.179Z,3.28
2022-08-14T02:37:50.239Z,5.30
2022-08-14T02:42:57.748Z,3.75
2022-08-14T02:48:02.717Z,3.80
2022-08-14T02:53:07.555Z,3.72
2022-08-14T02:58:21.408Z,3.47
2022-08-14T03:03:35.463Z,3.07
2022-08-14T03:08:46.071Z,2.67
2022-08-14T03:13:54.172Z,3.20
2022-08-14T03:19:00.233Z,4.03
2022-08-14T03:24:21.284Z,3.03
2022-08-14T03:29:29.517Z,4.32
2022-08-14T03:34:52.582Z,3.40
2022-08-14T03:39:58.718Z,3.17
2022-08-14T03:45:25.102Z,3.30
2022-08-14T03:50:34.595Z,3.42
2022-08-14T03:55:39.275Z,3.00
2022-08-14T04:00:46.134Z,3.05
2022-08-14T04:05:50.536Z,3.42
2022-08-14T04:10:56.401Z,3.70
2022-08-14T04:16:05.045Z,3.03
2022-08-14T04:21:10.142Z,3.13
2022-08-14T04:26:27.475Z,3.17
2022-08-14T04:32:58.174Z,3.80
2022-08-14T04:37:32.895Z,3.63
2022-08-14T04:42:54.990Z,3.90
2022-08-14T04:48:39.086Z,4.07
2022-08-14T04:53:43.921Z,4.22
2022-08-14T04:58:49.871Z,4.07
2022-08-14T05:03:59.226Z,4.80
2022-08-14T05:09:04.569Z,3.70
2022-08-14T05:14:34.642Z,4.22
2022-08-14T05:19:44.256Z,4.50
2022-08-14T05:24:51.355Z,4.72
2022-08-14T05:29:57.380Z,4.05
2022-08-14T05:35:03.325Z,4.35
2022-08-14T05:40:10.142Z,4.55
2022-08-14T05:45:17.204Z,4.53
2022-08-14T05:50:23.115Z,4.60
2022-08-14T05:55:27.379Z,3.78
2022-08-14T06:00:37.161Z,4.38
2022-08-14T06:05:46.798Z,4.22
2022-08-14T06:11:03.066Z,3.95
2022-08-14T06:16:08.377Z,3.95
2022-08-14T06:21:15.765Z,3.03
2022-08-14T06:26:22.432Z,3.90
2022-08-14T06:31:26.785Z,2.97
2022-08-14T06:36:32.542Z,2.93
2022-08-14T06:41:58.217Z,3.05
2022-08-14T06:47:02.680Z,2.93
2022-08-14T06:52:08.813Z,2.95
2022-08-14T06:57:13.338Z,2.97
2022-08-14T07:02:36.158Z,3.00
2022-08-14T07:07:43.507Z,2.92
2022-08-14T07:13:02.164Z,2.65
2022-08-14T07:18:10.531Z,4.28
2022-08-14T07:23:20.990Z,2.78
2022-08-14T07:28:29.589Z,3.60
2022-08-14T07:33:42.053Z,4.23
2022-08-14T07:38:52.393Z,2.80
2022-08-14T07:43:57.739Z,3.53
2022-08-14T07:49:02.148Z,2.37
2022-08-14T07:54:11.366Z,2.70
2022-08-14T07:59:18.172Z,2.33
2022-08-14T08:04:27.488Z,2.67
2022-08-14T08:09:36.134Z,3.53
2022-08-14T08:14:55.452Z,2.60
2022-08-14T08:20:01.513Z,2.25
2022-08-14T08:25:11.444Z,2.60
2022-08-14T08:30:19.458Z,2.43
2022-08-14T08:35:46.398Z,2.92
2022-08-14T08:40:56.506Z,2.63
2022-08-14T08:46:08.978Z,2.47
2022-08-14T08:51:34.703Z,3.42
2022-08-14T08:56:43.703Z,2.50
2022-08-14T09:01:56.238Z,2.40
2022-08-14T09:07:10.162Z,2.67
2022-08-14T09:12:17.221Z,2.87
2022-08-14T09:17:25.978Z,3.30
2022-08-14T09:22:34.970Z,2.70
2022-08-14T09:27:42.386Z,2.95
2022-08-14T09:33:10.804Z,3.85
2022-08-14T09:38:29.439Z,2.17
2022-08-14T09:43:53.444Z,2.13
2022-08-14T09:49:02.957Z,2.40
2022-08-14T09:54:23.029Z,3.10
2022-08-14T09:59:40.562Z,3.20
2022-08-14T10:04:46.255Z,3.30
2022-08-14T10:10:00.011Z,4.27
2022-08-14T10:15:21.922Z,4.53
2022-08-14T10:20:40.451Z,4.18
2022-08-14T10:25:50.509Z,4.03
2022-08-14T10:30:56.224Z,3.80
2022-08-14T10:36:02.820Z,3.83
2022-08-14T10:41:13.630Z,4.00
2022-08-14T10:47:37.357Z,4.50
2022-08-14T10:52:05.882Z,5.15
2022-08-14T10:57:17.193Z,4.50
2022-08-14T11:02:45.017Z,5.37
2022-08-14T11:08:01.991Z,5.15
2022-08-14T11:13:21.301Z,5.10
2022-08-14T11:18:36.825Z,5.80
2022-08-14T11:23:53.771Z,5.00
2022-08-14T11:29:05.713Z,5.18
2022-08-14T11:34:32.083Z,5.20
2022-08-14T11:39:38.534Z,5.95
2022-08-14T11:44:46.055Z,5.47
2022-08-14T11:49:53.300Z,6.18
2022-08-14T11:55:01.342Z,6.78
2022-08-14T12:00:10.059Z,6.70
2022-08-14T12:05:31.848Z,8.25
2022-08-14T12:10:42.731Z,6.57
2022-08-14T12:15:58.661Z,7.47
2022-08-14T12:21:19.452Z,5.40
2022-08-14T12:26:39.357Z,3.70
2022-08-14T12:31:47.308Z,4.80
2022-08-14T12:37:06.174Z,3.93
2022-08-14T12:42:11.624Z,5.22
2022-08-14T12:47:31.719Z,4.35
2022-08-14T12:52:45.247Z,4.30
2022-08-14T12:58:29.204Z,4.25
2022-08-14T13:03:32.741Z,4.70
2022-08-14T13:08:46.070Z,4.38
2022-08-14T13:14:01.169Z,5.90
2022-08-14T13:19:05.971Z,5.50
2022-08-14T13:24:19.766Z,5.35
2022-08-14T13:29:28.171Z,3.57
2022-08-14T13:34:34.169Z,4.20
2022-08-14T13:39:40.354Z,5.10
2022-08-14T13:44:50.342Z,4.30
2022-08-14T13:49:57.106Z,5.00
2022-08-14T13:55:07.547Z,4.45
2022-08-14T14:00:15.455Z,5.95
2022-08-14T14:05:23.235Z,5.55
2022-08-14T14:10:29.371Z,4.93
2022-08-14T14:15:48.712Z,4.05
2022-08-14T14:21:03.354Z,4.43
2022-08-14T14:26:13.785Z,4.05
2022-08-14T14:31:23.902Z,5.00
2022-08-14T14:36:34.938Z,4.78
2022-08-14T14:41:44.016Z,6.00
2022-08-14T14:46:50.543Z,5.05
2022-08-14T14:51:55.929Z,6.22
2022-08-14T14:57:03.495Z,4.15
2022-08-14T15:02:09.687Z,5.20
2022-08-14T15:07:16.349Z,4.40
2022-08-14T15:12:56.653Z,3.63
2022-08-14T15:17:47.657Z,3.85
2022-08-14T15:23:47.452Z,4.47
2022-08-14T15:29:29.671Z,4.28
2022-08-14T15:35:29.616Z,4.73
2022-08-14T15:41:08.429Z,5.15
2022-08-14T15:46:41.286Z,4.47
2022-08-14T15:51:42.072Z,5.97
2022-08-14T15:58:01.382Z,5.83
2022-08-14T16:04:34.686Z,3.85
2022-08-14T16:11:01.199Z,5.57
2022-08-14T16:17:16.940Z,5.00
2022-08-14T16:23:13.872Z,4.40
2022-08-14T16:35:01.560Z,6.40
2022-08-14T16:41:52.569Z,6.35
2022-08-14T16:48:57.089Z,5.80
2022-08-14T16:55:50.965Z,4.80
2022-08-14T17:07:17.607Z,5.88
2022-08-14T17:14:00.554Z,6.68
2022-08-14T17:26:45.994Z,5.07
2022-08-14T17:32:28.192Z,6.97
2022-08-14T17:37:56.039Z,4.40
2022-08-14T17:43:02.816Z,3.22
2022-08-14T17:49:14.195Z,5.70
2022-08-14T17:53:53.600Z,3.97
2022-08-14T17:59:07.469Z,3.23
2022-08-14T18:04:28.302Z,6.50
2022-08-14T18:09:56.723Z,4.67
2022-08-14T18:15:15.868Z,4.03
2022-08-14T18:21:24.623Z,4.07
2022-08-14T18:25:57.217Z,2.92
2022-08-14T18:31:42.141Z,5.35
2022-08-14T18:36:55.475Z,4.10
2022-08-14T18:42:45.346Z,5.07
2022-08-14T18:48:16.172Z,5.40
2022-08-14T18:53:24.635Z,4.07
2022-08-14T18:58:47.490Z,3.77
2022-08-14T19:03:54.564Z,6.15
2022-08-14T19:09:00.977Z,5.23
2022-08-14T19:14:08.026Z,4.87
2022-08-14T19:19:15.700Z,3.83
2022-08-14T19:24:44.050Z,4.20
2022-08-14T19:29:51.805Z,4.88
2022-08-14T19:34:59.913Z,3.60
2022-08-14T19:40:15.648Z,3.10
2022-08-14T19:45:30.135Z,4.13
2022-08-14T19:50:41.193Z,5.90
2022-08-14T19:55:58.498Z,6.70
2022-08-14T20:01:08.520Z,3.57
2022-08-14T20:06:14.035Z,3.45
2022-08-14T20:11:43.019Z,5.32
2022-08-14T20:16:55.714Z,3.58
2022-08-14T20:22:35.068Z,4.85
2022-08-14T20:27:45.888Z,4.50
2022-08-14T20:32:55.033Z,3.65
2022-08-14T20:38:30.909Z,4.53
2022-08-14T20:43:53.056Z,4.38
2022-08-14T20:49:02.434Z,4.63
2022-08-14T20:54:14.162Z,4.72
2022-08-14T20:59:21.912Z,3.45
2022-08-14T21:04:32.740Z,2.78
2022-08-14T21:10:06.373Z,3.28
2022-08-14T21:15:20.216Z,3.90
2022-08-14T21:20:28.944Z,4.00
2022-08-14T21:25:35.602Z,2.90
2022-08-14T21:30:51.512Z,5.67
2022-08-14T21:36:07.925Z,3.77
2022-08-14T21:41:42.711Z,5.68
2022-08-14T21:46:53.571Z,4.17
2022-08-14T21:52:50.495Z,5.00
2022-08-14T21:57:55.828Z,3.03
2022-08-14T22:02:55.497Z,3.73
2022-08-14T22:08:07.439Z,3.60
2022-08-14T22:13:18.178Z,5.87
2022-08-14T22:18:23.190Z,5.18
2022-08-14T22:23:31.344Z,4.15
2022-08-14T22:28:35.886Z,4.93
2022-08-14T22:33:43.036Z,5.50
2022-08-14T22:38:49.910Z,4.40
2022-08-14T22:44:01.808Z,5.25
2022-08-14T22:49:16.216Z,4.35
2022-08-14T22:54:52.023Z,4.65
2022-08-14T22:59:58.101Z,4.00
2022-08-14T23:05:04.717Z,4.72
2022-08-14T23:10:31.902Z,5.20
2022-08-14T23:15:38.244Z,3.87
2022-08-14T23:20:47.565Z,4.67
2022-08-14T23:26:00.555Z,6.03
2022-08-14T23:31:34.932Z,3.85
2022-08-14T23:36:53.427Z,4.75
2022-08-14T23:42:04.615Z,4.65
2022-08-14T23:47:26.335Z,5.90
2022-08-14T23:53:06.330Z,6.27
2022-08-14T23:58:03.170Z,7.30
